createdAt,value
2019-03-11T11:22:48.346Z,1.50
2019-03-11T11:25:22.156Z,1.50
2019-03-11T11:27:51.970Z,1.30
2019-03-11T11:30:22.368Z,1.77
2019-03-11T11:32:52.817Z,1.67
2019-03-11T11:35:22.964Z,1.50
2019-03-11T11:37:52.778Z,1.70
2019-03-11T11:40:23.555Z,1.40
2019-03-11T11:42:54.197Z,1.40
2019-03-11T11:45:26.129Z,1.30
2019-03-11T11:47:58.842Z,1.43
2019-03-11T11:50:28.977Z,1.70
2019-03-11T11:52:58.774Z,1.43
2019-03-11T11:55:30.355Z,1.43
2019-03-11T11:58:04.913Z,1.27
2019-03-11T12:00:37.943Z,1.97
2019-03-11T12:03:15.745Z,1.70
2019-03-11T12:05:50.002Z,2.10
2019-03-11T12:08:19.942Z,1.40
2019-03-11T12:10:51.865Z,1.50
2019-03-11T12:13:21.853Z,1.30
2019-03-11T12:15:53.278Z,1.60
2019-03-11T12:18:23.079Z,1.30
2019-03-11T12:20:52.923Z,1.37
2019-03-11T12:23:24.493Z,1.63
2019-03-11T12:25:57.323Z,1.57
2019-03-11T12:28:28.749Z,1.40
2019-03-11T12:30:58.824Z,1.70
2019-03-11T12:33:30.058Z,1.70
2019-03-11T12:36:00.161Z,1.63
2019-03-11T12:38:30.021Z,1.90
2019-03-11T12:41:03.515Z,1.80
2019-03-11T12:43:33.228Z,1.40
2019-03-11T12:46:05.039Z,1.33
2019-03-11T12:48:35.135Z,1.50
2019-03-11T12:51:08.306Z,1.67
2019-03-11T12:53:39.374Z,1.43
2019-03-11T12:56:09.325Z,1.70
2019-03-11T12:59:11.288Z,1.60
2019-03-11T13:01:41.297Z,1.43
2019-03-11T13:04:23.989Z,1.60
2019-03-11T13:06:54.591Z,1.87
2019-03-11T13:09:24.547Z,1.60
2019-03-11T13:11:55.552Z,1.50
2019-03-11T13:14:25.542Z,1.37
2019-03-11T13:16:57.512Z,1.67
2019-03-11T13:19:28.738Z,1.80
2019-03-11T13:22:00.003Z,1.47
2019-03-11T13:24:31.136Z,1.40
2019-03-11T13:27:01.021Z,1.47
2019-03-11T13:29:42.346Z,1.50
2019-03-11T13:32:10.981Z,1.43
2019-03-11T13:34:52.781Z,1.40
2019-03-11T13:37:37.638Z,1.37
2019-03-11T13:40:15.089Z,1.30
2019-03-11T13:42:47.847Z,1.70
2019-03-11T13:45:17.781Z,1.60
2019-03-11T13:47:48.780Z,1.20
2019-03-11T13:50:19.010Z,1.50
2019-03-11T13:52:50.452Z,1.70
2019-03-11T13:55:21.102Z,1.60
2019-03-11T13:57:54.575Z,1.70
2019-03-11T14:00:27.387Z,1.43
2019-03-11T14:02:57.595Z,1.40
2019-03-11T14:05:29.063Z,1.50
2019-03-11T14:08:00.391Z,1.20
2019-03-11T14:10:31.786Z,1.50
2019-03-11T14:13:02.541Z,1.50
2019-03-11T14:15:37.444Z,1.90
2019-03-11T14:18:09.315Z,1.23
2019-03-11T14:20:41.158Z,1.20
2019-03-11T14:23:13.002Z,1.30
2019-03-11T14:25:44.504Z,1.20
2019-03-11T14:28:14.990Z,1.60
2019-03-11T14:30:44.818Z,1.30
2019-03-11T14:33:15.725Z,1.30
2019-03-11T14:35:45.878Z,1.60
2019-03-11T14:38:15.666Z,1.37
2019-03-11T14:40:46.152Z,1.47
2019-03-11T14:43:15.961Z,1.30
2019-03-11T14:45:45.806Z,1.43
2019-03-11T14:48:15.615Z,1.37
2019-03-11T14:50:45.415Z,1.30
2019-03-11T14:53:15.309Z,1.43
2019-03-11T14:55:45.183Z,1.50
2019-03-11T14:58:15.082Z,1.50
2019-03-11T15:00:46.726Z,1.60
2019-03-11T15:03:16.614Z,2.00
2019-03-11T15:05:46.517Z,1.77
2019-03-11T15:08:16.332Z,1.77
2019-03-11T15:10:47.277Z,1.77
2019-03-11T15:13:17.153Z,1.67
2019-03-11T15:18:15.792Z,2.03
2019-03-11T15:20:45.722Z,3.62
2019-03-11T15:23:20.693Z,5.50
2019-03-11T15:25:48.159Z,3.60
2019-03-11T15:28:18.252Z,3.10
2019-03-11T15:30:48.250Z,3.10
2019-03-11T15:33:18.462Z,3.40
2019-03-11T15:35:48.550Z,3.50
2019-03-11T15:38:18.440Z,3.20
2019-03-11T15:40:48.334Z,3.37
2019-03-11T15:43:18.217Z,3.87
2019-03-11T15:45:48.091Z,4.03
2019-03-11T15:48:19.002Z,4.30
2019-03-11T15:50:48.860Z,4.33
2019-03-11T15:53:18.686Z,5.03
2019-03-11T15:55:48.675Z,3.70
2019-03-11T15:58:18.701Z,4.90
2019-03-11T16:00:48.520Z,3.83
2019-03-11T16:03:18.496Z,4.23
2019-03-11T16:05:48.357Z,3.43
2019-03-11T16:08:18.274Z,2.53
2019-03-11T16:10:48.175Z,2.10
2019-03-11T16:13:18.155Z,2.00
2019-03-11T16:15:48.070Z,1.90
2019-03-11T16:18:17.931Z,2.00
2019-03-11T16:20:47.774Z,1.80
2019-03-11T16:23:17.634Z,1.70
2019-03-11T16:25:47.549Z,2.93
2019-03-11T16:28:17.369Z,1.70
2019-03-11T16:30:47.260Z,1.50
2019-03-11T16:33:17.221Z,1.80
2019-03-11T16:35:47.109Z,1.63
2019-03-11T16:38:16.957Z,2.30
2019-03-11T16:40:46.862Z,1.50
2019-03-11T16:43:16.648Z,1.73
2019-03-11T16:45:46.596Z,1.50
2019-03-11T16:48:16.482Z,2.17
2019-03-11T16:50:46.321Z,1.97
2019-03-11T16:53:16.198Z,1.93
2019-03-11T16:55:47.243Z,1.77
2019-03-11T16:58:17.121Z,2.00
2019-03-11T17:00:47.288Z,2.10
2019-03-11T17:03:17.279Z,1.80
2019-03-11T17:05:47.070Z,1.67
2019-03-11T17:08:16.928Z,1.93
2019-03-11T17:10:46.763Z,1.90
2019-03-11T17:13:16.572Z,1.73
2019-03-11T17:15:46.633Z,1.83
2019-03-11T17:18:16.539Z,1.53
2019-03-11T17:20:46.406Z,1.80
2019-03-11T17:23:16.803Z,1.80
2019-03-11T17:25:46.703Z,1.47
2019-03-11T17:28:16.529Z,1.60
2019-03-11T17:30:46.446Z,1.87
2019-03-11T17:33:16.366Z,1.80
2019-03-11T17:35:46.286Z,1.77
2019-03-11T17:38:16.250Z,1.60
2019-03-11T17:40:46.118Z,2.00
2019-03-11T17:43:15.974Z,1.90
2019-03-11T17:45:45.960Z,1.80
2019-03-11T17:48:15.895Z,1.60
2019-03-11T17:50:46.752Z,1.97
2019-03-11T17:53:20.127Z,1.90
2019-03-11T17:55:48.069Z,2.07
2019-03-11T17:58:17.971Z,1.47
2019-03-11T18:00:55.612Z,1.80
2019-03-11T18:03:20.386Z,1.73
2019-03-11T18:05:50.229Z,2.03
2019-03-11T18:08:20.029Z,2.07
2019-03-11T18:10:50.070Z,1.60
2019-03-11T18:13:20.027Z,1.87
2019-03-11T18:15:49.932Z,2.10
2019-03-11T18:18:19.809Z,1.80
2019-03-11T18:20:49.862Z,1.77
2019-03-11T18:23:20.939Z,1.90
2019-03-11T18:25:51.343Z,1.77
2019-03-11T18:28:21.172Z,2.00
2019-03-11T18:30:51.834Z,1.60
2019-03-11T18:33:21.900Z,2.20
2019-03-11T18:35:51.908Z,2.27
2019-03-11T18:38:22.144Z,2.13
2019-03-11T18:40:54.269Z,2.00
2019-03-11T18:43:23.569Z,2.03
2019-03-11T18:45:53.540Z,2.10
2019-03-11T18:48:23.982Z,1.87
2019-03-11T18:50:54.002Z,1.90
2019-03-11T18:53:23.857Z,1.80
2019-03-11T18:55:53.663Z,1.83
2019-03-11T18:58:23.594Z,1.87
2019-03-11T19:00:53.546Z,2.70
2019-03-11T19:03:23.501Z,1.80
2019-03-11T19:05:53.425Z,1.73
2019-03-11T19:08:23.404Z,2.07
2019-03-11T19:10:53.481Z,2.37
2019-03-11T19:13:23.423Z,2.20
2019-03-11T19:15:53.340Z,2.33
2019-03-11T19:18:23.385Z,2.40
2019-03-11T19:20:53.459Z,2.03
2019-03-11T19:23:23.705Z,2.37
2019-03-11T19:25:53.637Z,2.70
2019-03-11T19:28:23.591Z,2.23
2019-03-11T19:30:53.589Z,2.23
2019-03-11T19:33:23.579Z,2.00
2019-03-11T19:35:53.461Z,2.00
2019-03-11T19:38:23.566Z,3.03
2019-03-11T19:40:53.583Z,1.80
2019-03-11T19:43:23.599Z,2.30
2019-03-11T19:45:53.510Z,2.47
2019-03-11T19:48:23.526Z,2.03
2019-03-11T19:50:53.343Z,2.30
2019-03-11T19:53:23.321Z,2.57
2019-03-11T19:55:53.248Z,2.70
2019-03-11T19:58:23.157Z,2.10
2019-03-11T20:00:53.127Z,2.30
2019-03-11T20:03:29.238Z,2.50
2019-03-11T20:05:54.717Z,2.40
2019-03-11T20:08:24.699Z,2.70
2019-03-11T20:10:54.810Z,2.20
2019-03-11T20:13:24.774Z,1.90
2019-03-11T20:15:54.659Z,2.27
2019-03-11T20:18:27.196Z,2.40
2019-03-11T20:20:57.891Z,2.27
2019-03-11T20:23:27.983Z,2.37
2019-03-11T20:25:58.480Z,2.40
2019-03-11T20:28:28.422Z,2.50
2019-03-11T20:30:58.526Z,2.47
2019-03-11T20:33:31.960Z,2.17
2019-03-11T20:36:01.965Z,2.13
2019-03-11T20:38:32.061Z,2.80
2019-03-11T20:41:02.233Z,2.50
2019-03-11T20:43:33.200Z,2.77
2019-03-11T20:46:03.158Z,2.40
2019-03-11T20:48:33.136Z,2.30
2019-03-11T20:51:03.216Z,2.50
2019-03-11T20:53:33.177Z,2.80
2019-03-11T20:56:04.857Z,2.77
2019-03-11T20:58:35.050Z,2.60
2019-03-11T21:01:06.113Z,2.13
2019-03-11T21:03:36.720Z,2.33
2019-03-11T21:06:08.949Z,3.10
2019-03-11T21:08:38.848Z,2.27
2019-03-11T21:11:09.796Z,4.07
2019-03-11T21:13:39.701Z,2.83
2019-03-11T21:16:10.107Z,3.03
2019-03-11T21:18:40.032Z,3.20
2019-03-11T21:21:17.571Z,2.70
2019-03-11T21:24:01.328Z,2.63
2019-03-11T21:26:20.852Z,3.20
2019-03-11T21:28:51.056Z,3.00
2019-03-11T21:31:21.539Z,2.80
2019-03-11T21:33:58.369Z,2.83
2019-03-11T21:36:26.432Z,2.50
2019-03-11T21:38:57.401Z,2.60
2019-03-11T21:41:27.620Z,2.90
2019-03-11T21:43:58.247Z,2.87
2019-03-11T21:46:28.162Z,2.73
2019-03-11T21:48:58.622Z,3.10
2019-03-11T21:51:28.492Z,2.50
2019-03-11T21:53:58.337Z,2.83
2019-03-11T21:56:28.372Z,2.73
2019-03-11T21:58:58.505Z,3.33
2019-03-11T22:01:30.939Z,2.83
2019-03-11T22:04:10.485Z,2.73
2019-03-11T22:06:40.365Z,2.70
2019-03-11T22:09:12.269Z,2.20
2019-03-11T22:11:43.062Z,2.80
2019-03-11T22:14:12.968Z,2.80
2019-03-11T22:16:46.139Z,2.57
2019-03-11T22:19:17.573Z,2.93
2019-03-11T22:21:50.471Z,3.20
2019-03-11T22:24:21.028Z,3.00
2019-03-11T22:26:52.340Z,2.73
2019-03-11T22:29:24.588Z,2.70
2019-03-11T22:31:53.845Z,2.53
2019-03-11T22:34:23.653Z,3.00
2019-03-11T22:36:58.983Z,2.47
2019-03-11T22:39:29.828Z,3.00
2019-03-11T22:42:01.847Z,2.57
2019-03-11T22:44:32.533Z,2.57
2019-03-11T22:47:02.403Z,2.50
2019-03-11T22:49:32.283Z,2.20
2019-03-11T22:52:02.061Z,2.50
2019-03-11T22:54:32.382Z,2.67
2019-03-11T22:57:02.439Z,2.63
2019-03-11T22:59:32.374Z,3.30
2019-03-11T23:02:03.322Z,2.80
2019-03-11T23:04:33.622Z,2.50
2019-03-11T23:07:04.143Z,2.37
2019-03-11T23:09:34.138Z,3.13
2019-03-11T23:12:04.452Z,2.73
2019-03-11T23:14:34.374Z,2.83
2019-03-11T23:17:04.514Z,2.83
2019-03-11T23:19:37.722Z,2.47
2019-03-11T23:22:08.618Z,2.30
2019-03-11T23:24:38.418Z,2.50
2019-03-11T23:27:08.250Z,2.40
2019-03-11T23:29:39.488Z,2.43
2019-03-11T23:32:09.463Z,2.07
2019-03-11T23:34:39.369Z,2.13
2019-03-11T23:37:09.183Z,2.90
2019-03-11T23:39:39.015Z,2.87
2019-03-11T23:42:08.773Z,3.17
2019-03-11T23:44:38.589Z,2.77
2019-03-11T23:47:09.077Z,2.97
2019-03-11T23:49:38.932Z,2.80
2019-03-11T23:52:08.778Z,3.10
2019-03-11T23:54:39.342Z,2.83
2019-03-11T23:57:09.321Z,2.83
2019-03-11T23:59:40.714Z,2.57
